Time,TemperatureF,DewpointF,PressureIn,WindDirection,WindDirectionDegrees,WindSpeedMPH,WindSpeedGustMPH,Humidity,HourlyPrecipIn,Conditions,Clouds,dailyrainin,SoftwareType,DateUTC
2013-11-27 00:01:00,27.7,17.1,30.11,North,0,0.0,0.0,64,0.00,,,0.00,WUHU216HW,2013-11-27 07:01:00,
2013-11-27 00:06:00,27.4,16.7,30.12,North,0,0.0,0.0,64,0.00,,,0.00,WUHU216HW,2013-11-27 07:06:00,
2013-11-27 00:11:00,27.0,16.7,30.12,North,0,0.0,0.0,65,0.00,,,0.00,WUHU216HW,2013-11-27 07:11:00,
2013-11-27 00:16:00,26.6,16.4,30.11,North,0,0.0,0.0,65,0.00,,,0.00,WUHU216HW,2013-11-27 07:16:00,
2013-11-27 00:21:00,26.3,16.0,30.12,North,0,0.0,0.0,65,0.00,,,0.00,WUHU216HW,2013-11-27 07:21:00,
2013-11-27 00:26:00,25.9,15.7,30.11,North,0,0.0,0.0,65,0.00,,,0.00,WUHU216HW,2013-11-27 07:26:00,
2013-11-27 00:31:00,25.6,15.4,30.11,North,0,0.0,0.0,65,0.00,,,0.00,WUHU216HW,2013-11-27 07:31:00,
2013-11-27 00:36:00,25.4,15.2,30.11,North,0,0.0,0.0,65,0.00,,,0.00,WUHU216HW,2013-11-27 07:36:00,
2013-11-27 00:41:00,25.2,15.0,30.11,North,0,0.0,0.0,65,0.00,,,0.00,WUHU216HW,2013-11-27 07:41:00,
2013-11-27 00:46:00,25.0,14.9,30.11,North,0,0.0,0.0,65,0.00,,,0.00,WUHU216HW,2013-11-27 07:46:00,
2013-11-27 00:51:00,24.8,14.7,30.10,North,0,0.0,0.0,65,0.00,,,0.00,WUHU216HW,2013-11-27 07:51:00,
2013-11-27 00:56:00,24.8,14.7,30.10,North,0,0.0,0.0,65,0.00,,,0.00,WUHU216HW,2013-11-27 07:56:00,
2013-11-27 01:01:00,24.5,14.3,30.10,North,0,0.0,0.0,65,0.00,,,0.00,WUHU216HW,2013-11-27 08:01:00,
2013-11-27 01:06:00,24.3,14.1,30.10,North,0,0.0,0.0,65,0.00,,,0.00,WUHU216HW,2013-11-27 08:06:00,
2013-11-27 01:11:00,24.1,14.0,30.10,North,0,0.0,0.0,65,0.00,,,0.00,WUHU216HW,2013-11-27 08:11:00,
2013-11-27 01:16:00,24.1,14.0,30.10,North,0,0.0,0.0,65,0.00,,,0.00,WUHU216HW,2013-11-27 08:16:00,
2013-11-27 01:21:00,23.9,13.9,30.10,North,0,0.0,0.0,65,0.00,,,0.00,WUHU216HW,2013-11-27 08:21:00,
2013-11-27 01:26:00,23.8,13.7,30.09,North,0,0.0,0.0,65,0.00,,,0.00,WUHU216HW,2013-11-27 08:26:00,
2013-11-27 01:31:00,23.4,13.3,30.10,North,0,0.0,0.0,65,0.00,,,0.00,WUHU216HW,2013-11-27 08:31:00,
2013-11-27 01:36:00,23.4,13.3,30.10,North,0,0.0,0.0,65,0.00,,,0.00,WUHU216HW,2013-11-27 08:36:00,
2013-11-27 01:41:00,23.2,13.2,30.10,North,0,0.0,0.0,65,0.00,,,0.00,WUHU216HW,2013-11-27 08:41:00,
2013-11-27 01:46:00,22.9,12.8,30.09,North,0,0.0,0.0,65,0.00,,,0.00,WUHU216HW,2013-11-27 08:46:00,
2013-11-27 01:51:00,22.9,12.8,30.09,North,0,0.0,0.0,65,0.00,,,0.00,WUHU216HW,2013-11-27 08:51:00,
2013-11-27 01:56:00,22.7,12.6,30.09,North,0,0.0,0.0,65,0.00,,,0.00,WUHU216HW,2013-11-27 08:56:00,
2013-11-27 02:01:00,22.7,12.6,30.09,North,0,0.0,0.0,65,0.00,,,0.00,WUHU216HW,2013-11-27 09:01:00,
2013-11-27 02:06:00,22.5,12.4,30.09,North,0,0.0,0.0,65,0.00,,,0.00,WUHU216HW,2013-11-27 09:06:00,
2013-11-27 02:11:00,22.3,12.2,30.09,North,0,0.0,0.0,65,0.00,,,0.00,WUHU216HW,2013-11-27 09:11:00,
2013-11-27 02:16:00,22.3,12.2,30.09,North,0,0.0,0.0,65,0.00,,,0.00,WUHU216HW,2013-11-27 09:16:00,
2013-11-27 02:21:00,22.1,12.1,30.09,North,0,0.0,0.0,65,0.00,,,0.00,WUHU216HW,2013-11-27 09:21:00,
2013-11-27 02:26:00,22.1,12.1,30.09,North,0,0.0,0.0,65,0.00,,,0.00,WUHU216HW,2013-11-27 09:26:00,
2013-11-27 02:31:00,22.0,12.0,30.09,North,0,0.0,0.0,65,0.00,,,0.00,WUHU216HW,2013-11-27 09:31:00,
2013-11-27 02:36:00,22.0,12.0,30.09,North,0,0.0,0.0,65,0.00,,,0.00,WUHU216HW,2013-11-27 09:36:00,
2013-11-27 02:41:00,22.0,11.6,30.09,North,0,0.0,0.0,64,0.00,,,0.00,WUHU216HW,2013-11-27 09:41:00,
2013-11-27 02:46:00,21.8,11.8,30.09,North,0,0.0,0.0,65,0.00,,,0.00,WUHU216HW,2013-11-27 09:46:00,
2013-11-27 02:51:00,21.6,11.6,30.09,North,0,0.0,0.0,65,0.00,,,0.00,WUHU216HW,2013-11-27 09:51:00,
2013-11-27 02:56:00,21.6,11.6,30.08,North,0,0.0,0.0,65,0.00,,,0.00,WUHU216HW,2013-11-27 09:56:00,
2013-11-27 03:01:00,21.4,11.4,30.08,North,0,0.0,0.0,65,0.00,,,0.00,WUHU216HW,2013-11-27 10:01:00,
2013-11-27 03:06:00,21.2,11.3,30.08,North,0,0.0,0.0,65,0.00,,,0.00,WUHU216HW,2013-11-27 10:06:00,
2013-11-27 03:11:00,21.2,11.3,30.08,North,0,0.0,0.0,65,0.00,,,0.00,WUHU216HW,2013-11-27 10:11:00,
2013-11-27 03:16:00,21.2,11.3,30.08,North,0,0.0,0.0,65,0.00,,,0.00,WUHU216HW,2013-11-27 10:16:00,
2013-11-27 03:21:00,21.2,11.3,30.08,North,0,0.0,0.0,65,0.00,,,0.00,WUHU216HW,2013-11-27 10:21:00,
2013-11-27 03:26:00,21.2,11.3,30.08,North,0,0.0,0.0,65,0.00,,,0.00,WUHU216HW,2013-11-27 10:26:00,
2013-11-27 03:31:00,21.2,10.9,30.08,North,0,0.0,0.0,64,0.00,,,0.00,WUHU216HW,2013-11-27 10:31:00,
2013-11-27 03:36:00,21.2,10.9,30.08,North,0,0.0,0.0,64,0.00,,,0.00,WUHU216HW,2013-11-27 10:36:00,
2013-11-27 03:41:00,21.2,10.9,30.08,North,0,0.0,0.0,64,0.00,,,0.00,WUHU216HW,2013-11-27 10:41:00,
2013-11-27 03:46:00,21.2,10.9,30.08,North,0,0.0,0.0,64,0.00,,,0.00,WUHU216HW,2013-11-27 10:46:00,
2013-11-27 03:51:00,21.4,11.1,30.08,North,0,0.0,0.0,64,0.00,,,0.00,WUHU216HW,2013-11-27 10:51:00,
2013-11-27 03:56:00,21.4,10.7,30.07,North,0,0.0,0.0,63,0.00,,,0.00,WUHU216HW,2013-11-27 10:56:00,
2013-11-27 04:01:00,22.5,11.1,30.07,North,0,0.0,0.0,61,0.00,,,0.00,WUHU216HW,2013-11-27 11:01:00,
2013-11-27 04:06:00,23.6,11.7,30.07,North,0,0.0,0.0,60,0.00,,,0.00,WUHU216HW,2013-11-27 11:06:00,
2013-11-27 04:11:00,24.3,12.0,30.07,North,0,0.0,0.0,59,0.00,,,0.00,WUHU216HW,2013-11-27 11:11:00,
2013-11-27 04:16:00,25.4,12.6,30.07,North,0,0.0,0.0,58,0.00,,,0.00,WUHU216HW,2013-11-27 11:16:00,
2013-11-27 04:21:00,25.7,13.0,30.07,North,0,0.0,0.0,58,0.00,,,0.00,WUHU216HW,2013-11-27 11:21:00,
2013-11-27 04:26:00,26.1,12.9,30.07,North,0,0.0,0.0,57,0.00,,,0.00,WUHU216HW,2013-11-27 11:26:00,
2013-11-27 04:31:00,26.6,13.0,30.07,North,0,0.0,0.0,56,0.00,,,0.00,WUHU216HW,2013-11-27 11:31:00,
2013-11-27 04:36:00,26.8,13.5,30.07,North,0,0.0,0.0,57,0.00,,,0.00,WUHU216HW,2013-11-27 11:36:00,
2013-11-27 04:41:00,27.0,13.7,30.07,North,0,0.0,0.0,57,0.00,,,0.00,WUHU216HW,2013-11-27 11:41:00,
2013-11-27 04:46:00,27.2,14.3,30.07,North,0,0.0,0.0,58,0.00,,,0.00,WUHU216HW,2013-11-27 11:46:00,
2013-11-27 04:51:00,27.2,13.9,30.07,North,0,0.0,0.0,57,0.00,,,0.00,WUHU216HW,2013-11-27 11:51:00,
2013-11-27 04:56:00,27.4,14.0,30.07,North,0,0.0,0.0,57,0.00,,,0.00,WUHU216HW,2013-11-27 11:56:00,
2013-11-27 05:01:00,27.5,14.7,30.06,North,0,0.0,0.0,58,0.00,,,0.00,WUHU216HW,2013-11-27 12:01:00,
2013-11-27 05:06:00,27.4,14.5,30.07,North,0,0.0,0.0,58,0.00,,,0.00,WUHU216HW,2013-11-27 12:06:00,
2013-11-27 05:11:00,27.5,14.7,30.07,North,0,0.0,0.0,58,0.00,,,0.00,WUHU216HW,2013-11-27 12:11:00,
2013-11-27 05:16:00,27.7,14.9,30.07,North,0,0.0,0.0,58,0.00,,,0.00,WUHU216HW,2013-11-27 12:16:00,
2013-11-27 05:21:00,27.7,14.9,30.07,North,0,0.0,0.0,58,0.00,,,0.00,WUHU216HW,2013-11-27 12:21:00,
2013-11-27 05:26:00,27.7,14.4,30.06,North,0,0.0,0.0,57,0.00,,,0.00,WUHU216HW,2013-11-27 12:26:00,
2013-11-27 05:31:00,27.9,15.0,30.06,North,0,0.0,0.0,58,0.00,,,0.00,WUHU216HW,2013-11-27 12:31:00,
2013-11-27 05:36:00,28.1,15.2,30.07,North,0,0.0,0.0,58,0.00,,,0.00,WUHU216HW,2013-11-27 12:36:00,
2013-11-27 05:41:00,28.3,14.9,30.06,North,0,0.0,0.0,57,0.00,,,0.00,WUHU216HW,2013-11-27 12:41:00,
2013-11-27 05:46:00,28.4,15.6,30.06,North,0,0.0,0.0,58,0.00,,,0.00,WUHU216HW,2013-11-27 12:46:00,
2013-11-27 05:51:00,28.3,15.4,30.06,North,0,0.0,0.0,58,0.00,,,0.00,WUHU216HW,2013-11-27 12:51:00,
2013-11-27 05:56:00,28.3,15.8,30.06,North,0,0.0,0.0,59,0.00,,,0.00,WUHU216HW,2013-11-27 12:56:00,
2013-11-27 06:00:00,28.1,15.6,30.06,North,0,0.0,0.0,59,0.00,,,0.00,WUHU216HW,2013-11-27 13:00:00,
2013-11-27 06:05:00,28.3,15.4,30.06,North,0,0.0,0.0,58,0.00,,,0.00,WUHU216HW,2013-11-27 13:05:00,
2013-11-27 06:10:00,28.4,15.6,30.06,North,0,0.0,0.0,58,0.00,,,0.00,WUHU216HW,2013-11-27 13:10:00,
2013-11-27 06:15:00,28.6,16.1,30.06,North,0,0.0,0.0,59,0.00,,,0.00,WUHU216HW,2013-11-27 13:15:00,
2013-11-27 06:20:00,28.8,16.3,30.06,North,0,0.0,0.0,59,0.00,,,0.00,WUHU216HW,2013-11-27 13:20:00,
2013-11-27 06:25:00,28.8,16.3,30.06,North,0,0.0,0.0,59,0.00,,,0.00,WUHU216HW,2013-11-27 13:25:00,
2013-11-27 06:30:00,28.8,16.3,30.06,North,0,0.0,0.0,59,0.00,,,0.00,WUHU216HW,2013-11-27 13:30:00,
2013-11-27 06:35:00,28.8,16.3,30.06,North,0,0.0,0.0,59,0.00,,,0.00,WUHU216HW,2013-11-27 13:35:00,
2013-11-27 06:40:00,29.0,16.5,30.06,North,0,0.0,0.0,59,0.00,,,0.00,WUHU216HW,2013-11-27 13:40:00,
2013-11-27 06:45:00,29.0,16.8,30.06,North,0,0.0,0.0,60,0.00,,,0.00,WUHU216HW,2013-11-27 13:45:00,
2013-11-27 06:50:00,29.2,17.0,30.07,North,0,0.0,0.0,60,0.00,,,0.00,WUHU216HW,2013-11-27 13:50:00,
2013-11-27 06:55:00,29.0,17.2,30.07,North,0,0.0,0.0,61,0.00,,,0.00,WUHU216HW,2013-11-27 13:55:00,
2013-11-27 07:00:00,28.4,17.1,30.07,North,0,0.0,0.0,62,0.00,,,0.00,WUHU216HW,2013-11-27 14:00:00,
2013-11-27 07:05:00,27.7,16.4,30.07,North,0,0.0,0.0,62,0.00,,,0.00,WUHU216HW,2013-11-27 14:05:00,
2013-11-27 07:10:00,27.4,16.0,30.07,North,0,0.0,0.0,62,0.00,,,0.00,WUHU216HW,2013-11-27 14:10:00,
2013-11-27 07:15:00,27.4,16.0,30.07,North,0,0.0,0.0,62,0.00,,,0.00,WUHU216HW,2013-11-27 14:15:00,
2013-11-27 07:20:00,27.4,15.7,30.07,North,0,0.0,0.0,61,0.00,,,0.00,WUHU216HW,2013-11-27 14:20:00,
2013-11-27 07:25:00,27.2,15.5,30.06,North,0,0.0,0.0,61,0.00,,,0.00,WUHU216HW,2013-11-27 14:25:00,
2013-11-27 07:30:00,27.2,15.5,30.06,North,0,0.0,0.0,61,0.00,,,0.00,WUHU216HW,2013-11-27 14:30:00,
2013-11-27 07:35:00,27.4,15.7,30.07,North,0,0.0,0.0,61,0.00,,,0.00,WUHU216HW,2013-11-27 14:35:00,
2013-11-27 07:40:00,27.5,15.8,30.07,North,0,0.0,0.0,61,0.00,,,0.00,WUHU216HW,2013-11-27 14:40:00,
2013-11-27 07:45:00,27.7,15.7,30.07,North,0,0.0,0.0,60,0.00,,,0.00,WUHU216HW,2013-11-27 14:45:00,
2013-11-27 07:50:00,27.9,15.8,30.07,North,0,0.0,0.0,60,0.00,,,0.00,WUHU216HW,2013-11-27 14:50:00,
2013-11-27 07:55:00,27.9,15.8,30.07,North,0,0.0,0.0,60,0.00,,,0.00,WUHU216HW,2013-11-27 14:55:00,
2013-11-27 08:00:00,28.1,15.6,30.07,North,0,0.0,0.0,59,0.00,,,0.00,WUHU216HW,2013-11-27 15:00:00,
2013-11-27 08:05:00,28.4,15.6,30.07,North,0,0.0,0.0,58,0.00,,,0.00,WUHU216HW,2013-11-27 15:05:00,
2013-11-27 08:10:00,28.8,15.5,30.07,North,0,0.0,0.0,57,0.00,,,0.00,WUHU216HW,2013-11-27 15:10:00,
2013-11-27 08:15:00,28.8,15.5,30.07,North,0,0.0,0.0,57,0.00,,,0.00,WUHU216HW,2013-11-27 15:15:00,
2013-11-27 08:20:00,29.2,16.2,30.07,North,0,0.0,0.0,58,0.00,,,0.00,WUHU216HW,2013-11-27 15:20:00,
2013-11-27 08:25:00,29.2,16.2,30.07,North,0,0.0,0.0,58,0.00,,,0.00,WUHU216HW,2013-11-27 15:25:00,
2013-11-27 08:30:00,29.5,16.6,30.08,North,0,0.0,0.0,58,0.00,,,0.00,WUHU216HW,2013-11-27 15:30:00,
2013-11-27 08:35:00,29.9,16.8,30.07,North,0,0.0,0.0,58,0.00,,,0.00,WUHU216HW,2013-11-27 15:35:00,
2013-11-27 08:40:00,30.2,16.4,30.07,North,0,0.0,0.0,56,0.00,,,0.00,WUHU216HW,2013-11-27 15:40:00,
2013-11-27 08:45:00,30.4,16.6,30.07,North,0,0.0,0.0,56,0.00,,,0.00,WUHU216HW,2013-11-27 15:45:00,
2013-11-27 08:50:00,30.6,16.7,30.07,North,0,0.0,0.0,56,0.00,,,0.00,WUHU216HW,2013-11-27 15:50:00,
2013-11-27 08:55:00,31.1,17.2,30.07,North,0,0.0,0.0,56,0.00,,,0.00,WUHU216HW,2013-11-27 15:55:00,
2013-11-27 09:00:00,31.7,17.3,30.07,North,0,0.0,0.0,55,0.00,,,0.00,WUHU216HW,2013-11-27 16:00:00,
2013-11-27 09:05:00,31.9,17.5,30.07,North,0,0.0,0.0,55,0.00,,,0.00,WUHU216HW,2013-11-27 16:05:00,
2013-11-27 09:10:00,32.0,17.6,30.07,North,0,0.0,0.0,55,0.00,,,0.00,WUHU216HW,2013-11-27 16:10:00,
2013-11-27 09:15:00,32.0,18.1,30.07,North,0,0.0,0.0,56,0.00,,,0.00,WUHU216HW,2013-11-27 16:15:00,
2013-11-27 09:20:00,32.6,18.5,30.07,North,0,0.0,0.0,56,0.00,,,0.00,WUHU216HW,2013-11-27 16:20:00,
2013-11-27 09:25:00,33.1,19.1,30.07,North,0,0.0,0.0,56,0.00,,,0.00,WUHU216HW,2013-11-27 16:25:00,
2013-11-27 09:30:00,33.8,19.7,30.07,North,0,0.0,0.0,56,0.00,,,0.00,WUHU216HW,2013-11-27 16:30:00,
2013-11-27 09:35:00,34.6,21.2,30.07,North,0,0.0,0.0,58,0.00,,,0.00,WUHU216HW,2013-11-27 16:35:00,
2013-11-27 09:40:00,35.5,22.6,30.07,North,0,0.0,0.0,59,0.00,,,0.00,WUHU216HW,2013-11-27 16:40:00,
2013-11-27 09:45:00,36.0,24.7,30.07,North,0,0.0,0.0,63,0.00,,,0.00,WUHU216HW,2013-11-27 16:45:00,
2013-11-27 09:50:00,36.5,25.1,30.06,North,0,0.0,0.0,63,0.00,,,0.00,WUHU216HW,2013-11-27 16:50:00,
2013-11-27 09:55:00,37.1,26.4,30.07,North,0,0.0,0.0,65,0.00,,,0.00,WUHU216HW,2013-11-27 16:55:00,
2013-11-27 10:00:00,37.3,26.9,30.07,North,0,0.0,0.0,66,0.00,,,0.00,WUHU216HW,2013-11-27 17:00:00,
2013-11-27 10:05:00,37.4,27.1,30.06,North,0,0.0,0.0,66,0.00,,,0.00,WUHU216HW,2013-11-27 17:05:00,
2013-11-27 10:10:00,38.0,26.8,30.06,North,0,0.0,0.0,64,0.00,,,0.00,WUHU216HW,2013-11-27 17:10:00,
2013-11-27 10:15:00,38.3,28.3,30.06,North,0,0.0,0.0,67,0.00,,,0.00,WUHU216HW,2013-11-27 17:15:00,
2013-11-27 10:20:00,38.5,27.7,30.07,North,0,0.0,0.0,65,0.00,,,0.00,WUHU216HW,2013-11-27 17:20:00,
2013-11-27 10:25:00,39.1,27.8,30.07,North,0,0.0,0.0,64,0.00,,,0.00,WUHU216HW,2013-11-27 17:25:00,
2013-11-27 10:30:00,39.2,28.7,30.06,North,0,0.0,0.0,66,0.00,,,0.00,WUHU216HW,2013-11-27 17:30:00,
2013-11-27 10:35:00,39.4,28.2,30.05,North,0,0.0,0.0,64,0.00,,,0.00,WUHU216HW,2013-11-27 17:35:00,
2013-11-27 10:40:00,39.8,28.9,30.05,North,0,0.0,0.0,65,0.00,,,0.00,WUHU216HW,2013-11-27 17:40:00,
2013-11-27 10:45:00,40.0,28.7,30.05,North,0,0.0,0.0,64,0.00,,,0.00,WUHU216HW,2013-11-27 17:45:00,
2013-11-27 10:50:00,40.3,29.4,30.05,North,0,0.0,0.0,65,0.00,,,0.00,WUHU216HW,2013-11-27 17:50:00,
2013-11-27 10:55:00,40.7,29.1,30.05,North,0,0.0,0.0,63,0.00,,,0.00,WUHU216HW,2013-11-27 17:55:00,
2013-11-27 11:00:00,41.2,29.5,30.05,North,0,0.0,0.0,63,0.00,,,0.00,WUHU216HW,2013-11-27 18:00:00,
2013-11-27 11:05:00,41.4,29.0,30.04,North,0,0.0,0.0,61,0.00,,,0.00,WUHU216HW,2013-11-27 18:05:00,
2013-11-27 11:10:00,41.4,28.2,30.04,North,0,0.0,0.0,59,0.00,,,0.00,WUHU216HW,2013-11-27 18:10:00,
2013-11-27 11:15:00,41.6,27.9,30.04,North,0,0.0,0.0,58,0.00,,,0.00,WUHU216HW,2013-11-27 18:15:00,
2013-11-27 11:20:00,41.8,27.5,30.03,North,0,0.0,0.0,57,0.00,,,0.00,WUHU216HW,2013-11-27 18:20:00,
2013-11-27 11:25:00,41.8,26.7,30.03,North,0,0.0,0.0,55,0.00,,,0.00,WUHU216HW,2013-11-27 18:25:00,
2013-11-27 11:30:00,41.8,26.7,30.03,North,0,0.0,0.0,55,0.00,,,0.00,WUHU216HW,2013-11-27 18:30:00,
2013-11-27 11:35:00,41.8,26.7,30.03,North,0,0.0,0.0,55,0.00,,,0.00,WUHU216HW,2013-11-27 18:35:00,
2013-11-27 11:40:00,41.6,26.6,30.02,North,0,0.0,0.0,55,0.00,,,0.00,WUHU216HW,2013-11-27 18:40:00,
2013-11-27 11:45:00,40.9,25.8,30.02,North,0,0.0,0.0,55,0.00,,,0.00,WUHU216HW,2013-11-27 18:45:00,
2013-11-27 11:50:00,40.7,26.1,30.02,North,0,0.0,0.0,56,0.00,,,0.00,WUHU216HW,2013-11-27 18:50:00,
2013-11-27 11:55:00,40.9,26.7,30.02,North,0,0.0,0.0,57,0.00,,,0.00,WUHU216HW,2013-11-27 18:55:00,
2013-11-27 11:56:00,40.9,26.7,30.02,North,0,0.0,0.0,57,0.00,,,0.00,WUHU216HW,2013-11-27 18:56:00,
2013-11-27 12:01:00,41.0,27.4,30.02,North,0,0.0,0.0,58,0.00,,,0.00,WUHU216HW,2013-11-27 19:01:00,
2013-11-27 12:06:00,41.2,27.6,30.01,North,0,0.0,0.0,58,0.00,,,0.00,WUHU216HW,2013-11-27 19:06:00,
2013-11-27 12:11:00,41.8,28.0,30.01,North,0,0.0,0.0,58,0.00,,,0.00,WUHU216HW,2013-11-27 19:11:00,
2013-11-27 12:16:00,41.4,27.7,30.01,North,0,0.0,0.0,58,0.00,,,0.00,WUHU216HW,2013-11-27 19:16:00,
2013-11-27 12:21:00,41.8,28.0,30.00,North,0,0.0,0.0,58,0.00,,,0.00,WUHU216HW,2013-11-27 19:21:00,
2013-11-27 12:26:00,41.8,28.0,30.01,North,0,0.0,0.0,58,0.00,,,0.00,WUHU216HW,2013-11-27 19:26:00,
2013-11-27 12:31:00,41.8,28.4,30.00,North,0,0.0,0.0,59,0.00,,,0.00,WUHU216HW,2013-11-27 19:31:00,
2013-11-27 12:36:00,42.1,28.8,30.00,North,0,0.0,0.0,59,0.00,,,0.00,WUHU216HW,2013-11-27 19:36:00,
2013-11-27 12:41:00,42.1,28.8,30.00,North,0,0.0,0.0,59,0.00,,,0.00,WUHU216HW,2013-11-27 19:41:00,
2013-11-27 12:46:00,42.1,28.4,30.00,North,0,0.0,0.0,58,0.00,,,0.00,WUHU216HW,2013-11-27 19:46:00,
2013-11-27 12:51:00,41.6,28.3,29.99,North,0,0.0,0.0,59,0.00,,,0.00,WUHU216HW,2013-11-27 19:51:00,
2013-11-27 12:56:00,41.4,28.2,29.99,North,0,0.0,0.0,59,0.00,,,0.00,WUHU216HW,2013-11-27 19:56:00,
2013-11-27 13:01:00,41.4,28.2,29.99,North,0,0.0,0.0,59,0.00,,,0.00,WUHU216HW,2013-11-27 20:01:00,
2013-11-27 13:06:00,41.2,27.6,29.99,North,0,0.0,0.0,58,0.00,,,0.00,WUHU216HW,2013-11-27 20:06:00,
2013-11-27 13:11:00,41.2,27.1,29.99,North,0,0.0,0.0,57,0.00,,,0.00,WUHU216HW,2013-11-27 20:11:00,
2013-11-27 13:16:00,41.4,27.3,29.99,North,0,0.0,0.0,57,0.00,,,0.00,WUHU216HW,2013-11-27 20:16:00,
2013-11-27 13:21:00,41.8,27.5,29.98,North,0,0.0,0.0,57,0.00,,,0.00,WUHU216HW,2013-11-27 20:21:00,
2013-11-27 13:25:00,41.9,28.2,29.98,North,0,0.0,0.0,58,0.00,,,0.00,WUHU216HW,2013-11-27 20:25:00,
2013-11-27 13:30:00,41.8,28.0,29.98,North,0,0.0,0.0,58,0.00,,,0.00,WUHU216HW,2013-11-27 20:30:00,
2013-11-27 13:35:00,41.8,28.0,29.98,North,0,0.0,0.0,58,0.00,,,0.00,WUHU216HW,2013-11-27 20:35:00,
2013-11-27 13:40:00,41.6,27.5,29.98,North,0,0.0,0.0,57,0.00,,,0.00,WUHU216HW,2013-11-27 20:40:00,
2013-11-27 13:45:00,41.6,27.5,29.97,North,0,0.0,0.0,57,0.00,,,0.00,WUHU216HW,2013-11-27 20:45:00,
2013-11-27 13:50:00,41.8,27.5,29.97,North,0,0.0,0.0,57,0.00,,,0.00,WUHU216HW,2013-11-27 20:50:00,
2013-11-27 13:55:00,41.6,27.5,29.97,North,0,0.0,0.0,57,0.00,,,0.00,WUHU216HW,2013-11-27 20:55:00,
2013-11-27 14:00:00,41.6,27.5,29.97,North,0,0.0,0.0,57,0.00,,,0.00,WUHU216HW,2013-11-27 21:00:00,
2013-11-27 14:05:00,41.2,27.6,29.97,North,0,0.0,0.0,58,0.00,,,0.00,WUHU216HW,2013-11-27 21:05:00,
2013-11-27 14:10:00,41.0,27.4,29.97,North,0,0.0,0.0,58,0.00,,,0.00,WUHU216HW,2013-11-27 21:10:00,
2013-11-27 14:15:00,40.9,27.2,29.96,North,0,0.0,0.0,58,0.00,,,0.00,WUHU216HW,2013-11-27 21:15:00,
2013-11-27 14:20:00,40.7,27.5,29.96,North,0,0.0,0.0,59,0.00,,,0.00,WUHU216HW,2013-11-27 21:20:00,
2013-11-27 14:25:00,40.5,26.8,29.96,North,0,0.0,0.0,58,0.00,,,0.00,WUHU216HW,2013-11-27 21:25:00,
2013-11-27 14:30:00,40.5,26.8,29.97,North,0,0.0,0.0,58,0.00,,,0.00,WUHU216HW,2013-11-27 21:30:00,
2013-11-27 14:35:00,40.3,26.6,29.96,North,0,0.0,0.0,58,0.00,,,0.00,WUHU216HW,2013-11-27 21:35:00,
2013-11-27 14:40:00,40.1,26.5,29.96,North,0,0.0,0.0,58,0.00,,,0.00,WUHU216HW,2013-11-27 21:40:00,
2013-11-27 14:45:00,40.0,26.7,29.96,North,0,0.0,0.0,59,0.00,,,0.00,WUHU216HW,2013-11-27 21:45:00,
2013-11-27 14:50:00,40.0,26.7,29.96,North,0,0.0,0.0,59,0.00,,,0.00,WUHU216HW,2013-11-27 21:50:00,
2013-11-27 14:55:00,40.0,26.7,29.96,North,0,0.0,0.0,59,0.00,,,0.00,WUHU216HW,2013-11-27 21:55:00,
2013-11-27 15:00:00,40.0,26.7,29.96,North,0,0.0,0.0,59,0.00,,,0.00,WUHU216HW,2013-11-27 22:00:00,
2013-11-27 15:05:00,40.0,26.7,29.96,North,0,0.0,0.0,59,0.00,,,0.00,WUHU216HW,2013-11-27 22:05:00,
2013-11-27 15:10:00,40.0,26.7,29.97,North,0,0.0,0.0,59,0.00,,,0.00,WUHU216HW,2013-11-27 22:10:00,
2013-11-27 15:15:00,39.8,26.6,29.96,North,0,0.0,0.0,59,0.00,,,0.00,WUHU216HW,2013-11-27 22:15:00,
2013-11-27 15:20:00,39.8,26.6,29.96,North,0,0.0,0.0,59,0.00,,,0.00,WUHU216HW,2013-11-27 22:20:00,
2013-11-27 15:25:00,40.0,26.7,29.96,North,0,0.0,0.0,59,0.00,,,0.00,WUHU216HW,2013-11-27 22:25:00,
2013-11-27 15:30:00,40.0,27.2,29.96,North,0,0.0,0.0,60,0.00,,,0.00,WUHU216HW,2013-11-27 22:30:00,
2013-11-27 15:35:00,40.0,27.2,29.97,North,0,0.0,0.0,60,0.00,,,0.00,WUHU216HW,2013-11-27 22:35:00,
2013-11-27 15:40:00,39.6,26.8,29.96,North,0,0.0,0.0,60,0.00,,,0.00,WUHU216HW,2013-11-27 22:40:00,
2013-11-27 15:45:00,39.4,26.6,29.96,North,0,0.0,0.0,60,0.00,,,0.00,WUHU216HW,2013-11-27 22:45:00,
2013-11-27 15:50:00,39.2,26.5,29.96,North,0,0.0,0.0,60,0.00,,,0.00,WUHU216HW,2013-11-27 22:50:00,
2013-11-27 15:55:00,39.1,26.3,29.96,North,0,0.0,0.0,60,0.00,,,0.00,WUHU216HW,2013-11-27 22:55:00,
2013-11-27 16:00:00,39.1,26.6,29.96,North,0,0.0,0.0,61,0.00,,,0.00,WUHU216HW,2013-11-27 23:00:00,
2013-11-27 16:05:00,39.2,26.8,29.96,North,0,0.0,0.0,61,0.00,,,0.00,WUHU216HW,2013-11-27 23:05:00,
2013-11-27 16:10:00,39.2,26.8,29.96,North,0,0.0,0.0,61,0.00,,,0.00,WUHU216HW,2013-11-27 23:10:00,
2013-11-27 16:15:00,39.1,26.6,29.96,North,0,0.0,0.0,61,0.00,,,0.00,WUHU216HW,2013-11-27 23:15:00,
2013-11-27 16:20:00,38.9,26.9,29.96,North,0,0.0,0.0,62,0.00,,,0.00,WUHU216HW,2013-11-27 23:20:00,
2013-11-27 16:25:00,38.7,26.7,29.96,North,0,0.0,0.0,62,0.00,,,0.00,WUHU216HW,2013-11-27 23:25:00,
2013-11-27 16:30:00,38.5,26.9,29.96,North,0,0.0,0.0,63,0.00,,,0.00,WUHU216HW,2013-11-27 23:30:00,
2013-11-27 16:35:00,38.2,26.7,29.96,North,0,0.0,0.0,63,0.00,,,0.00,WUHU216HW,2013-11-27 23:35:00,
2013-11-27 16:40:00,37.8,26.3,29.96,North,0,0.0,0.0,63,0.00,,,0.00,WUHU216HW,2013-11-27 23:40:00,
2013-11-27 16:45:00,37.6,26.1,29.96,North,0,0.0,0.0,63,0.00,,,0.00,WUHU216HW,2013-11-27 23:45:00,
2013-11-27 16:50:00,37.3,25.5,29.96,North,0,0.0,0.0,62,0.00,,,0.00,WUHU216HW,2013-11-27 23:50:00,
2013-11-27 16:55:00,37.1,25.3,29.96,North,0,0.0,0.0,62,0.00,,,0.00,WUHU216HW,2013-11-27 23:55:00,
2013-11-27 17:00:00,36.7,25.3,29.96,North,0,0.0,0.0,63,0.00,,,0.00,WUHU216HW,2013-11-28 00:00:00,
2013-11-27 17:05:00,36.4,24.9,29.96,North,0,0.0,0.0,63,0.00,,,0.00,WUHU216HW,2013-11-28 00:05:00,
2013-11-27 17:10:00,36.2,24.9,29.96,North,0,0.0,0.0,63,0.00,,,0.00,WUHU216HW,2013-11-28 00:10:00,
2013-11-27 17:15:00,36.0,24.7,29.96,North,0,0.0,0.0,63,0.00,,,0.00,WUHU216HW,2013-11-28 00:15:00,
2013-11-27 17:20:00,35.6,24.7,29.96,North,0,0.0,0.0,64,0.00,,,0.00,WUHU216HW,2013-11-28 00:20:00,
2013-11-27 17:25:00,35.5,24.5,29.97,North,0,0.0,0.0,64,0.00,,,0.00,WUHU216HW,2013-11-28 00:25:00,
2013-11-27 17:30:00,35.1,24.1,29.97,North,0,0.0,0.0,64,0.00,,,0.00,WUHU216HW,2013-11-28 00:30:00,
2013-11-27 17:35:00,34.9,23.9,29.97,North,0,0.0,0.0,64,0.00,,,0.00,WUHU216HW,2013-11-28 00:35:00,
2013-11-27 17:40:00,34.6,23.6,29.97,North,0,0.0,0.0,64,0.00,,,0.00,WUHU216HW,2013-11-28 00:40:00,
2013-11-27 17:45:00,34.2,23.2,29.96,North,0,0.0,0.0,64,0.00,,,0.00,WUHU216HW,2013-11-28 00:45:00,
2013-11-27 17:50:00,34.0,23.0,29.97,North,0,0.0,0.0,64,0.00,,,0.00,WUHU216HW,2013-11-28 00:50:00,
2013-11-27 17:55:00,33.5,22.9,29.96,North,0,0.0,0.0,65,0.00,,,0.00,WUHU216HW,2013-11-28 00:55:00,
2013-11-27 18:00:00,33.1,22.6,29.97,North,0,0.0,0.0,65,0.00,,,0.00,WUHU216HW,2013-11-28 01:00:00,
2013-11-27 18:05:00,32.8,22.2,29.97,North,0,0.0,0.0,65,0.00,,,0.00,WUHU216HW,2013-11-28 01:05:00,
2013-11-27 18:10:00,32.0,21.6,29.97,North,0,0.0,0.0,65,0.00,,,0.00,WUHU216HW,2013-11-28 01:10:00,
2013-11-27 18:15:00,31.7,21.2,29.97,North,0,0.0,0.0,65,0.00,,,0.00,WUHU216HW,2013-11-28 01:15:00,
2013-11-27 18:20:00,31.3,20.9,29.97,North,0,0.0,0.0,65,0.00,,,0.00,WUHU216HW,2013-11-28 01:20:00,
2013-11-27 18:25:00,31.0,20.5,29.97,North,0,0.0,0.0,65,0.00,,,0.00,WUHU216HW,2013-11-28 01:25:00,
2013-11-27 18:30:00,30.6,20.2,29.97,North,0,0.0,0.0,65,0.00,,,0.00,WUHU216HW,2013-11-28 01:30:00,
2013-11-27 18:35:00,30.1,20.0,29.97,North,0,0.0,0.0,66,0.00,,,0.00,WUHU216HW,2013-11-28 01:35:00,
2013-11-27 18:40:00,29.7,19.7,29.98,North,0,0.0,0.0,66,0.00,,,0.00,WUHU216HW,2013-11-28 01:40:00,
2013-11-27 18:45:00,29.5,19.5,29.98,North,0,0.0,0.0,66,0.00,,,0.00,WUHU216HW,2013-11-28 01:45:00,
2013-11-27 18:50:00,29.2,18.8,29.98,North,0,0.0,0.0,65,0.00,,,0.00,WUHU216HW,2013-11-28 01:50:00,
2013-11-27 18:55:00,29.0,18.6,29.98,North,0,0.0,0.0,65,0.00,,,0.00,WUHU216HW,2013-11-28 01:55:00,
2013-11-27 19:00:00,28.8,18.6,29.98,North,0,0.0,0.0,65,0.00,,,0.00,WUHU216HW,2013-11-28 02:00:00,
2013-11-27 19:05:00,28.4,18.2,29.98,North,0,0.0,0.0,65,0.00,,,0.00,WUHU216HW,2013-11-28 02:05:00,
2013-11-27 19:10:00,28.3,17.6,29.98,North,0,0.0,0.0,64,0.00,,,0.00,WUHU216HW,2013-11-28 02:10:00,
2013-11-27 19:15:00,28.1,17.8,29.98,North,0,0.0,0.0,65,0.00,,,0.00,WUHU216HW,2013-11-28 02:15:00,
2013-11-27 19:20:00,27.9,17.6,29.97,North,0,0.0,0.0,65,0.00,,,0.00,WUHU216HW,2013-11-28 02:20:00,
2013-11-27 19:25:00,27.7,17.5,29.97,North,0,0.0,0.0,65,0.00,,,0.00,WUHU216HW,2013-11-28 02:25:00,
2013-11-27 19:30:00,27.7,17.5,29.97,North,0,0.0,0.0,65,0.00,,,0.00,WUHU216HW,2013-11-28 02:30:00,
2013-11-27 19:35:00,27.5,17.3,29.97,North,0,0.0,0.0,65,0.00,,,0.00,WUHU216HW,2013-11-28 02:35:00,
2013-11-27 19:40:00,27.5,17.3,29.97,North,0,0.0,0.0,65,0.00,,,0.00,WUHU216HW,2013-11-28 02:40:00,
2013-11-27 19:45:00,27.4,17.1,29.97,North,0,0.0,0.0,65,0.00,,,0.00,WUHU216HW,2013-11-28 02:45:00,
2013-11-27 19:50:00,27.0,16.7,29.97,North,0,0.0,0.0,65,0.00,,,0.00,WUHU216HW,2013-11-28 02:50:00,
2013-11-27 19:55:00,27.0,16.4,29.97,North,0,0.0,0.0,64,0.00,,,0.00,WUHU216HW,2013-11-28 02:55:00,
2013-11-27 20:00:00,27.0,16.4,29.97,North,0,0.0,0.0,64,0.00,,,0.00,WUHU216HW,2013-11-28 03:00:00,
2013-11-27 20:05:00,26.8,16.2,29.97,North,0,0.0,0.0,64,0.00,,,0.00,WUHU216HW,2013-11-28 03:05:00,
2013-11-27 20:10:00,26.6,16.0,29.97,North,0,0.0,0.0,64,0.00,,,0.00,WUHU216HW,2013-11-28 03:10:00,
2013-11-27 20:15:00,26.6,16.0,29.98,North,0,0.0,0.0,64,0.00,,,0.00,WUHU216HW,2013-11-28 03:15:00,
2013-11-27 20:20:00,26.5,15.8,29.97,North,0,0.0,0.0,64,0.00,,,0.00,WUHU216HW,2013-11-28 03:20:00,
2013-11-27 20:25:00,26.3,15.7,29.98,North,0,0.0,0.0,64,0.00,,,0.00,WUHU216HW,2013-11-28 03:25:00,
2013-11-27 20:30:00,26.3,15.7,29.98,North,0,0.0,0.0,64,0.00,,,0.00,WUHU216HW,2013-11-28 03:30:00,
2013-11-27 20:35:00,26.1,15.5,29.98,North,0,0.0,0.0,64,0.00,,,0.00,WUHU216HW,2013-11-28 03:35:00,
2013-11-27 20:40:00,25.7,14.9,29.98,North,0,0.0,0.0,63,0.00,,,0.00,WUHU216HW,2013-11-28 03:40:00,
2013-11-27 20:45:00,25.7,14.9,29.98,North,0,0.0,0.0,63,0.00,,,0.00,WUHU216HW,2013-11-28 03:45:00,
2013-11-27 20:50:00,25.6,15.0,29.98,North,0,0.0,0.0,64,0.00,,,0.00,WUHU216HW,2013-11-28 03:50:00,
2013-11-27 20:55:00,25.6,14.7,29.98,North,0,0.0,0.0,63,0.00,,,0.00,WUHU216HW,2013-11-28 03:55:00,
2013-11-27 21:00:00,25.6,15.0,29.98,North,0,0.0,0.0,64,0.00,,,0.00,WUHU216HW,2013-11-28 04:00:00,
2013-11-27 21:05:00,25.4,14.9,29.98,North,0,0.0,0.0,64,0.00,,,0.00,WUHU216HW,2013-11-28 04:05:00,
2013-11-27 21:10:00,25.2,14.7,29.98,North,0,0.0,0.0,64,0.00,,,0.00,WUHU216HW,2013-11-28 04:10:00,
2013-11-27 21:15:00,25.2,14.7,29.98,North,0,0.0,0.0,64,0.00,,,0.00,WUHU216HW,2013-11-28 04:15:00,
2013-11-27 21:20:00,25.0,14.5,29.98,North,0,0.0,0.0,64,0.00,,,0.00,WUHU216HW,2013-11-28 04:20:00,
2013-11-27 21:25:00,25.0,14.5,29.98,North,0,0.0,0.0,64,0.00,,,0.00,WUHU216HW,2013-11-28 04:25:00,
2013-11-27 21:30:00,24.8,14.3,29.98,North,0,0.0,0.0,64,0.00,,,0.00,WUHU216HW,2013-11-28 04:30:00,
2013-11-27 21:35:00,24.8,14.3,29.98,North,0,0.0,0.0,64,0.00,,,0.00,WUHU216HW,2013-11-28 04:35:00,
2013-11-27 21:40:00,24.7,14.1,29.98,North,0,0.0,0.0,64,0.00,,,0.00,WUHU216HW,2013-11-28 04:40:00,
2013-11-27 21:45:00,24.5,14.0,29.98,North,0,0.0,0.0,64,0.00,,,0.00,WUHU216HW,2013-11-28 04:45:00,
2013-11-27 21:50:00,24.3,13.8,29.98,North,0,0.0,0.0,64,0.00,,,0.00,WUHU216HW,2013-11-28 04:50:00,
2013-11-27 21:55:00,24.1,13.7,29.98,North,0,0.0,0.0,64,0.00,,,0.00,WUHU216HW,2013-11-28 04:55:00,
2013-11-27 22:00:00,24.1,13.7,29.98,North,0,0.0,0.0,64,0.00,,,0.00,WUHU216HW,2013-11-28 05:00:00,
2013-11-27 22:01:00,24.1,13.7,29.98,North,0,0.0,0.0,64,0.00,,,0.00,WUHU216HW,2013-11-28 05:01:00,
2013-11-27 22:06:00,23.9,13.5,29.98,North,0,0.0,0.0,64,0.00,,,0.00,WUHU216HW,2013-11-28 05:06:00,
2013-11-27 22:11:00,23.8,13.3,29.98,North,0,0.0,0.0,64,0.00,,,0.00,WUHU216HW,2013-11-28 05:11:00,
2013-11-27 22:16:00,23.8,13.3,29.98,North,0,0.0,0.0,64,0.00,,,0.00,WUHU216HW,2013-11-28 05:16:00,
2013-11-27 22:21:00,23.6,13.2,29.98,North,0,0.0,0.0,64,0.00,,,0.00,WUHU216HW,2013-11-28 05:21:00,
2013-11-27 22:26:00,23.4,13.0,29.98,North,0,0.0,0.0,64,0.00,,,0.00,WUHU216HW,2013-11-28 05:26:00,
2013-11-27 22:31:00,23.4,13.0,29.98,North,0,0.0,0.0,64,0.00,,,0.00,WUHU216HW,2013-11-28 05:31:00,
2013-11-27 22:36:00,23.4,12.6,29.97,North,0,0.0,0.0,63,0.00,,,0.00,WUHU216HW,2013-11-28 05:36:00,
2013-11-27 22:41:00,23.4,12.6,29.97,North,0,0.0,0.0,63,0.00,,,0.00,WUHU216HW,2013-11-28 05:41:00,
2013-11-27 22:46:00,23.2,12.4,29.97,North,0,0.0,0.0,63,0.00,,,0.00,WUHU216HW,2013-11-28 05:46:00,
2013-11-27 22:51:00,23.2,12.4,29.97,North,0,0.0,0.0,63,0.00,,,0.00,WUHU216HW,2013-11-28 05:51:00,
2013-11-27 22:56:00,23.2,12.4,29.97,North,0,0.0,0.0,63,0.00,,,0.00,WUHU216HW,2013-11-28 05:56:00,
2013-11-27 23:01:00,23.2,12.4,29.97,North,0,0.0,0.0,63,0.00,,,0.00,WUHU216HW,2013-11-28 06:01:00,
2013-11-27 23:06:00,23.0,12.2,29.97,North,0,0.0,0.0,63,0.00,,,0.00,WUHU216HW,2013-11-28 06:06:00,
2013-11-27 23:11:00,22.9,12.1,29.97,North,0,0.0,0.0,63,0.00,,,0.00,WUHU216HW,2013-11-28 06:11:00,
2013-11-27 23:16:00,22.7,12.2,29.97,North,0,0.0,0.0,64,0.00,,,0.00,WUHU216HW,2013-11-28 06:16:00,
2013-11-27 23:21:00,22.7,12.2,29.97,North,0,0.0,0.0,64,0.00,,,0.00,WUHU216HW,2013-11-28 06:21:00,
2013-11-27 23:26:00,22.5,12.1,29.97,North,0,0.0,0.0,64,0.00,,,0.00,WUHU216HW,2013-11-28 06:26:00,
2013-11-27 23:31:00,22.3,11.9,29.97,North,0,0.0,0.0,64,0.00,,,0.00,WUHU216HW,2013-11-28 06:31:00,
2013-11-27 23:36:00,22.3,11.9,29.96,North,0,0.0,0.0,64,0.00,,,0.00,WUHU216HW,2013-11-28 06:36:00,
2013-11-27 23:41:00,22.1,11.8,29.96,North,0,0.0,0.0,64,0.00,,,0.00,WUHU216HW,2013-11-28 06:41:00,
2013-11-27 23:46:00,22.1,11.8,29.96,North,0,0.0,0.0,64,0.00,,,0.00,WUHU216HW,2013-11-28 06:46:00,
2013-11-27 23:51:00,22.1,11.8,29.96,North,0,0.0,0.0,64,0.00,,,0.00,WUHU216HW,2013-11-28 06:51:00,
2013-11-27 23:56:00,22.1,11.4,29.97,North,0,0.0,0.0,63,0.00,,,0.00,WUHU216HW,2013-11-28 06:56:00,